Ana Sayfa
METAR-TAF:

METAR-TAF

Havaalanları :

Kake, Alaska, Amerika Birleşik Devletleri

Enlem: 56-57N, Boylam: 133-54W, yükseklik: 52 m

Güncel hava durumu gözlemi

Rapor saat 23:56 UTC de 1 saat ve 12 dakika önce yapıldı.
Rüzgar güneydoğudan 8 kt
Sıcaklık 16°C
Nem 94%
Basınç 1013 hPa
Görüş mesafesi: 16.1 km
900 ft yükseklikte parçalı çok bulutlu
1400 ft yükseklikte parçalı çok bulutlu
2100 ft yükseklikte çok bulutlu
hafif yağmur

METAR: PAFE 172356Z AUTO 13008KT 10SM -RA BKN009 BKN014 OVC021 16/15 A2990 RMK AO2 CIG 005V012 SLP132 P0004 60035 T01560150 10161 20156 53012

Saat: 17:08 (01:08 UTC)


TAF: eksik

4.000'den fazla havaalanı için hava durumu gözlemleri ve tahminleri (METAR ve TAF raporları).

Kullanılabilir istasyonlar harita üzerinde sarı ve kırmızı noktalarla gösterilir.

İstasyonun adını görmek için fareyi noktanın üzerinde gezdirin.

Sonrasında hava gözlem ve tahminlerini görmek için tıklayın.

Haritayı değiştirmek için: yaklaştırmak için siyah artı işaretli yeşil düğmeye ve uzaklaştırmak için de eksi işaretli düğmeye hızla tıklayın; bitişik haritalar için yeşil okları kullanın.


METAR-TAF: